Hvidovre, Denmark
Current Conditions -  °F | °C
As of 4:20 PM on Thursday 30 Oct 2014 (Local Time) from EKCH Reporting Station
Broken Clouds Broken Clouds  
Wind Chill: 46°   Ceiling: 25000
Heat Index: 48°   Visibility: 6mi
Dew Point: 39°   Wind: 6mph
Humidity: 71%   Direction: 270°W
Pressure: 30.27"   Gusts: NA
Location:  55.66°N, 12.47°E
Report Text: EKCH 301520Z 27005KT 9999 FEW025 BKN250 09/04 Q1025 NOSIG
Loading
Personal Weather Stations






























Interactive Weather Map New forecast layout! Learn more

10-Day Weather Forecast

Advertisements
Track Severe Weather on mobile